sensor_id;sensor_type;location;lat;lon;timestamp;pressure;altitude;pressure_sealevel;temperature;humidity
55755;BME280;41674;52.290;-1.474;2023-04-30T00:02:08;101508.61;;;14.42;87.45
55755;BME280;41674;52.290;-1.474;2023-04-30T00:04:38;101508.22;;;14.24;88.67
55755;BME280;41674;52.290;-1.474;2023-04-30T00:07:07;101513.02;;;14.69;87.48
55755;BME280;41674;52.290;-1.474;2023-04-30T00:09:37;101510.53;;;14.90;86.94
55755;BME280;41674;52.290;-1.474;2023-04-30T00:12:06;101509.87;;;14.92;86.84
55755;BME280;41674;52.290;-1.474;2023-04-30T00:14:35;101507.66;;;14.61;87.68
55755;BME280;41674;52.290;-1.474;2023-04-30T00:17:06;101506.74;;;15.25;85.47
55755;BME280;41674;52.290;-1.474;2023-04-30T00:19:35;101506.62;;;15.18;85.56
55755;BME280;41674;52.290;-1.474;2023-04-30T00:22:04;101511.63;;;14.85;86.79
55755;BME280;41674;52.290;-1.474;2023-04-30T00:24:34;101512.54;;;15.10;85.79
55755;BME280;41674;52.290;-1.474;2023-04-30T00:27:03;101513.76;;;15.58;83.78
55755;BME280;41674;52.290;-1.474;2023-04-30T00:29:33;101516.42;;;15.12;84.95
55755;BME280;41674;52.290;-1.474;2023-04-30T00:32:03;101517.92;;;15.14;83.38
55755;BME280;41674;52.290;-1.474;2023-04-30T00:34:32;101516.56;;;15.58;82.18
55755;BME280;41674;52.290;-1.474;2023-04-30T00:37:02;101518.55;;;15.66;81.87
55755;BME280;41674;52.290;-1.474;2023-04-30T00:39:32;101520.32;;;15.65;81.91
55755;BME280;41674;52.290;-1.474;2023-04-30T00:42:02;101520.12;;;15.36;81.25
55755;BME280;41674;52.290;-1.474;2023-04-30T00:44:31;101515.33;;;14.90;81.59
55755;BME280;41674;52.290;-1.474;2023-04-30T00:47:06;101516.52;;;15.78;80.54
55755;BME280;41674;52.290;-1.474;2023-04-30T00:49:35;101514.58;;;15.53;81.55
55755;BME280;41674;52.290;-1.474;2023-04-30T00:52:02;101512.65;;;14.42;84.92
55755;BME280;41674;52.290;-1.474;2023-04-30T00:54:30;101514.83;;;13.75;87.62
55755;BME280;41674;52.290;-1.474;2023-04-30T00:57:00;101515.17;;;12.49;93.68
55755;BME280;41674;52.290;-1.474;2023-04-30T00:59:29;101513.71;;;13.39;89.16
55755;BME280;41674;52.290;-1.474;2023-04-30T01:01:58;101511.87;;;12.57;90.87
55755;BME280;41674;52.290;-1.474;2023-04-30T01:04:28;101513.19;;;13.27;88.26
55755;BME280;41674;52.290;-1.474;2023-04-30T01:06:57;101516.96;;;13.19;88.04
55755;BME280;41674;52.290;-1.474;2023-04-30T01:09:27;101512.49;;;13.13;87.44
55755;BME280;41674;52.290;-1.474;2023-04-30T01:12:03;101516.68;;;11.97;90.72
55755;BME280;41674;52.290;-1.474;2023-04-30T01:14:31;101515.26;;;11.92;89.68
55755;BME280;41674;52.290;-1.474;2023-04-30T01:17:03;101519.61;;;12.75;86.98
55755;BME280;41674;52.290;-1.474;2023-04-30T01:19:34;101520.02;;;13.03;85.21
55755;BME280;41674;52.290;-1.474;2023-04-30T01:21:54;101516.87;;;12.20;86.29
55755;BME280;41674;52.290;-1.474;2023-04-30T01:24:42;101511.46;;;12.60;83.60
55755;BME280;41674;52.290;-1.474;2023-04-30T01:27:05;101511.51;;;12.07;86.26
55755;BME280;41674;52.290;-1.474;2023-04-30T01:29:22;101507.08;;;12.42;84.88
55755;BME280;41674;52.290;-1.474;2023-04-30T01:31:50;101510.31;;;13.14;82.69
55755;BME280;41674;52.290;-1.474;2023-04-30T01:34:20;101516.77;;;11.72;86.72
55755;BME280;41674;52.290;-1.474;2023-04-30T01:37:01;101512.82;;;12.43;85.40
55755;BME280;41674;52.290;-1.474;2023-04-30T01:41:56;101521.50;;;12.12;86.19
55755;BME280;41674;52.290;-1.474;2023-04-30T01:44:28;101518.27;;;12.13;84.83
55755;BME280;41674;52.290;-1.474;2023-04-30T01:46:53;101520.91;;;13.04;82.13
55755;BME280;41674;52.290;-1.474;2023-04-30T01:49:20;101520.61;;;12.48;83.31
55755;BME280;41674;52.290;-1.474;2023-04-30T01:51:46;101523.90;;;12.13;83.95
55755;BME280;41674;52.290;-1.474;2023-04-30T01:54:20;101518.93;;;12.74;81.99
55755;BME280;41674;52.290;-1.474;2023-04-30T01:56:48;101516.63;;;13.31;79.52
55755;BME280;41674;52.290;-1.474;2023-04-30T01:59:13;101511.73;;;13.35;77.74
55755;BME280;41674;52.290;-1.474;2023-04-30T02:01:48;101513.35;;;12.12;79.08
55755;BME280;41674;52.290;-1.474;2023-04-30T02:04:12;101514.92;;;12.96;78.74
55755;BME280;41674;52.290;-1.474;2023-04-30T02:06:42;101520.83;;;11.43;84.83
55755;BME280;41674;52.290;-1.474;2023-04-30T02:09:12;101515.81;;;11.65;84.58
55755;BME280;41674;52.290;-1.474;2023-04-30T02:11:42;101520.70;;;11.07;86.36
55755;BME280;41674;52.290;-1.474;2023-04-30T02:14:12;101515.29;;;11.82;84.78
55755;BME280;41674;52.290;-1.474;2023-04-30T02:16:40;101519.23;;;10.92;88.55
55755;BME280;41674;52.290;-1.474;2023-04-30T02:19:09;101511.26;;;12.50;83.94
55755;BME280;41674;52.290;-1.474;2023-04-30T02:21:43;101514.32;;;12.60;82.32
55755;BME280;41674;52.290;-1.474;2023-04-30T02:24:08;101515.49;;;12.43;81.88
55755;BME280;41674;52.290;-1.474;2023-04-30T02:26:38;101520.91;;;12.03;83.95
55755;BME280;41674;52.290;-1.474;2023-04-30T02:29:12;101518.01;;;12.94;81.03
55755;BME280;41674;52.290;-1.474;2023-04-30T02:31:36;101517.93;;;13.02;79.97
55755;BME280;41674;52.290;-1.474;2023-04-30T02:34:06;101520.98;;;12.77;80.14
55755;BME280;41674;52.290;-1.474;2023-04-30T02:36:36;101521.64;;;12.67;80.26
55755;BME280;41674;52.290;-1.474;2023-04-30T02:39:11;101521.50;;;12.78;80.47
55755;BME280;41674;52.290;-1.474;2023-04-30T02:41:35;101520.92;;;12.93;79.52
55755;BME280;41674;52.290;-1.474;2023-04-30T02:44:05;101519.36;;;13.26;79.11
55755;BME280;41674;52.290;-1.474;2023-04-30T02:46:33;101521.52;;;12.65;80.95
55755;BME280;41674;52.290;-1.474;2023-04-30T02:49:03;101518.27;;;12.56;82.03
55755;BME280;41674;52.290;-1.474;2023-04-30T02:51:37;101520.62;;;12.89;81.38
55755;BME280;41674;52.290;-1.474;2023-04-30T02:54:02;101518.03;;;12.83;80.19
55755;BME280;41674;52.290;-1.474;2023-04-30T02:56:31;101520.97;;;12.28;80.76
55755;BME280;41674;52.290;-1.474;2023-04-30T02:59:01;101521.42;;;12.50;80.90
55755;BME280;41674;52.290;-1.474;2023-04-30T03:01:30;101519.68;;;12.30;82.10
55755;BME280;41674;52.290;-1.474;2023-04-30T03:04:00;101520.28;;;12.40;81.12
55755;BME280;41674;52.290;-1.474;2023-04-30T03:06:29;101520.23;;;12.55;79.33
55755;BME280;41674;52.290;-1.474;2023-04-30T03:09:00;101521.69;;;12.15;81.87
55755;BME280;41674;52.290;-1.474;2023-04-30T03:11:27;101516.25;;;12.69;79.85
55755;BME280;41674;52.290;-1.474;2023-04-30T03:13:58;101516.73;;;12.61;79.60
55755;BME280;41674;52.290;-1.474;2023-04-30T03:16:26;101512.90;;;13.08;78.55
55755;BME280;41674;52.290;-1.474;2023-04-30T03:18:56;101513.08;;;12.80;78.40
55755;BME280;41674;52.290;-1.474;2023-04-30T03:21:26;101515.40;;;12.99;77.83
55755;BME280;41674;52.290;-1.474;2023-04-30T03:23:55;101514.16;;;12.73;78.04
55755;BME280;41674;52.290;-1.474;2023-04-30T03:26:24;101512.38;;;11.94;78.82
55755;BME280;41674;52.290;-1.474;2023-04-30T03:28:54;101521.00;;;13.08;77.05
55755;BME280;41674;52.290;-1.474;2023-04-30T03:31:23;101520.45;;;12.69;76.92
55755;BME280;41674;52.290;-1.474;2023-04-30T03:33:54;101520.70;;;12.50;77.95
55755;BME280;41674;52.290;-1.474;2023-04-30T03:36:22;101516.98;;;12.82;76.54
55755;BME280;41674;52.290;-1.474;2023-04-30T03:38:51;101513.35;;;12.63;76.19
55755;BME280;41674;52.290;-1.474;2023-04-30T03:41:21;101515.35;;;12.82;76.33
55755;BME280;41674;52.290;-1.474;2023-04-30T03:43:51;101517.06;;;12.82;76.42
55755;BME280;41674;52.290;-1.474;2023-04-30T03:46:20;101519.94;;;11.78;77.61
55755;BME280;41674;52.290;-1.474;2023-04-30T03:48:49;101515.60;;;12.31;76.62
55755;BME280;41674;52.290;-1.474;2023-04-30T03:51:19;101514.25;;;12.39;77.22
55755;BME280;41674;52.290;-1.474;2023-04-30T03:53:47;101517.95;;;12.57;76.69
55755;BME280;41674;52.290;-1.474;2023-04-30T03:56:16;101520.38;;;12.03;77.47
55755;BME280;41674;52.290;-1.474;2023-04-30T03:58:46;101517.93;;;12.50;76.47
55755;BME280;41674;52.290;-1.474;2023-04-30T04:01:16;101521.92;;;11.87;78.01
55755;BME280;41674;52.290;-1.474;2023-04-30T04:03:50;101524.67;;;11.75;78.83
55755;BME280;41674;52.290;-1.474;2023-04-30T04:06:14;101522.30;;;11.83;78.14
55755;BME280;41674;52.290;-1.474;2023-04-30T04:08:44;101522.75;;;11.39;79.48
55755;BME280;41674;52.290;-1.474;2023-04-30T04:11:13;101520.13;;;11.65;79.22
55755;BME280;41674;52.290;-1.474;2023-04-30T04:13:42;101525.41;;;11.53;79.46
55755;BME280;41674;52.290;-1.474;2023-04-30T04:16:12;101524.24;;;11.32;79.11
55755;BME280;41674;52.290;-1.474;2023-04-30T04:18:41;101520.53;;;11.78;78.02
55755;BME280;41674;52.290;-1.474;2023-04-30T04:21:10;101518.40;;;11.88;77.14
55755;BME280;41674;52.290;-1.474;2023-04-30T04:23:40;101519.08;;;11.76;77.35
55755;BME280;41674;52.290;-1.474;2023-04-30T04:26:10;101518.58;;;11.80;76.82
55755;BME280;41674;52.290;-1.474;2023-04-30T04:28:39;101516.91;;;11.87;76.48
55755;BME280;41674;52.290;-1.474;2023-04-30T04:31:08;101517.68;;;11.90;76.76
55755;BME280;41674;52.290;-1.474;2023-04-30T04:33:38;101522.51;;;11.76;78.34
55755;BME280;41674;52.290;-1.474;2023-04-30T04:36:07;101520.16;;;11.68;78.04
55755;BME280;41674;52.290;-1.474;2023-04-30T04:38:36;101519.58;;;11.79;78.38
55755;BME280;41674;52.290;-1.474;2023-04-30T04:41:11;101524.95;;;10.43;81.21
55755;BME280;41674;52.290;-1.474;2023-04-30T04:43:35;101525.37;;;10.13;85.19
55755;BME280;41674;52.290;-1.474;2023-04-30T04:46:05;101526.87;;;10.13;84.27
55755;BME280;41674;52.290;-1.474;2023-04-30T04:48:35;101527.71;;;11.53;78.46
55755;BME280;41674;52.290;-1.474;2023-04-30T04:51:09;101523.97;;;11.02;79.67
55755;BME280;41674;52.290;-1.474;2023-04-30T04:53:33;101527.10;;;11.47;78.18
55755;BME280;41674;52.290;-1.474;2023-04-30T04:56:04;101525.03;;;11.21;80.16
55755;BME280;41674;52.290;-1.474;2023-04-30T04:58:33;101526.35;;;11.05;79.22
55755;BME280;41674;52.290;-1.474;2023-04-30T05:01:02;101529.73;;;11.28;79.52
55755;BME280;41674;52.290;-1.474;2023-04-30T05:03:33;101526.79;;;10.59;81.39
55755;BME280;41674;52.290;-1.474;2023-04-30T05:06:01;101529.28;;;10.45;82.50
55755;BME280;41674;52.290;-1.474;2023-04-30T05:08:30;101530.38;;;11.77;77.68
55755;BME280;41674;52.290;-1.474;2023-04-30T05:11:00;101532.53;;;11.67;77.92
55755;BME280;41674;52.290;-1.474;2023-04-30T05:13:30;101530.72;;;11.73;77.51
55755;BME280;41674;52.290;-1.474;2023-04-30T05:15:59;101525.17;;;11.96;77.51
55755;BME280;41674;52.290;-1.474;2023-04-30T05:18:29;101525.48;;;11.95;77.35
55755;BME280;41674;52.290;-1.474;2023-04-30T05:21:04;101523.69;;;12.38;76.99
55755;BME280;41674;52.290;-1.474;2023-04-30T05:23:28;101526.49;;;11.93;77.83
55755;BME280;41674;52.290;-1.474;2023-04-30T05:25:58;101528.61;;;11.76;79.18
55755;BME280;41674;52.290;-1.474;2023-04-30T05:28:32;101529.67;;;11.88;78.44
55755;BME280;41674;52.290;-1.474;2023-04-30T05:31:01;101524.95;;;12.00;77.61
55755;BME280;41674;52.290;-1.474;2023-04-30T05:33:26;101526.76;;;11.73;79.02
55755;BME280;41674;52.290;-1.474;2023-04-30T05:35:55;101523.54;;;12.37;76.89
55755;BME280;41674;52.290;-1.474;2023-04-30T05:38:25;101530.71;;;11.81;77.97
55755;BME280;41674;52.290;-1.474;2023-04-30T05:40:54;101525.44;;;12.36;76.00
55755;BME280;41674;52.290;-1.474;2023-04-30T05:43:24;101526.22;;;12.36;76.09
55755;BME280;41674;52.290;-1.474;2023-04-30T05:45:54;101528.17;;;12.40;75.61
55755;BME280;41674;52.290;-1.474;2023-04-30T05:48:22;101525.85;;;12.51;75.31
55755;BME280;41674;52.290;-1.474;2023-04-30T05:50:51;101524.34;;;12.06;75.17
55755;BME280;41674;52.290;-1.474;2023-04-30T05:53:21;101524.43;;;12.36;75.17
55755;BME280;41674;52.290;-1.474;2023-04-30T05:55:51;101525.06;;;12.20;75.01
55755;BME280;41674;52.290;-1.474;2023-04-30T05:58:20;101525.37;;;12.40;75.66
55755;BME280;41674;52.290;-1.474;2023-04-30T06:00:50;101526.38;;;12.54;75.29
55755;BME280;41674;52.290;-1.474;2023-04-30T06:03:20;101526.78;;;12.62;75.60
55755;BME280;41674;52.290;-1.474;2023-04-30T06:05:54;101529.51;;;12.40;75.51
55755;BME280;41674;52.290;-1.474;2023-04-30T06:08:24;101530.71;;;12.45;76.17
55755;BME280;41674;52.290;-1.474;2023-04-30T06:10:49;101537.47;;;11.45;78.83
55755;BME280;41674;52.290;-1.474;2023-04-30T06:13:18;101532.27;;;12.72;75.98
55755;BME280;41674;52.290;-1.474;2023-04-30T06:15:47;101534.98;;;12.67;76.39
55755;BME280;41674;52.290;-1.474;2023-04-30T06:18:17;101534.13;;;12.50;75.80
55755;BME280;41674;52.290;-1.474;2023-04-30T06:20:46;101535.97;;;12.41;74.19
55755;BME280;41674;52.290;-1.474;2023-04-30T06:23:15;101536.81;;;12.69;74.95
55755;BME280;41674;52.290;-1.474;2023-04-30T06:25:44;101536.40;;;13.06;75.23
55755;BME280;41674;52.290;-1.474;2023-04-30T06:28:14;101537.85;;;12.81;74.54
55755;BME280;41674;52.290;-1.474;2023-04-30T06:30:44;101540.16;;;12.33;74.00
55755;BME280;41674;52.290;-1.474;2023-04-30T06:33:13;101536.76;;;12.78;74.24
55755;BME280;41674;52.290;-1.474;2023-04-30T06:35:43;101537.26;;;12.72;75.85
55755;BME280;41674;52.290;-1.474;2023-04-30T06:38:11;101539.56;;;13.03;76.57
55755;BME280;41674;52.290;-1.474;2023-04-30T06:40:41;101542.73;;;12.20;76.96
55755;BME280;41674;52.290;-1.474;2023-04-30T06:43:10;101544.32;;;12.08;77.69
55755;BME280;41674;52.290;-1.474;2023-04-30T06:45:40;101547.81;;;11.47;80.16
55755;BME280;41674;52.290;-1.474;2023-04-30T06:48:10;101545.06;;;12.13;79.72
55755;BME280;41674;52.290;-1.474;2023-04-30T06:50:45;101546.57;;;11.02;78.93
55755;BME280;41674;52.290;-1.474;2023-04-30T06:53:09;101544.59;;;10.82;81.38
55755;BME280;41674;52.290;-1.474;2023-04-30T06:55:44;101546.19;;;10.68;83.49
55755;BME280;41674;52.290;-1.474;2023-04-30T06:58:09;101548.06;;;11.00;83.63
55755;BME280;41674;52.290;-1.474;2023-04-30T07:00:38;101545.91;;;12.19;79.79
55755;BME280;41674;52.290;-1.474;2023-04-30T07:03:08;101543.37;;;12.35;80.64
55755;BME280;41674;52.290;-1.474;2023-04-30T07:05:38;101541.33;;;12.90;79.95
55755;BME280;41674;52.290;-1.474;2023-04-30T07:08:07;101542.59;;;12.88;76.82
55755;BME280;41674;52.290;-1.474;2023-04-30T07:10:37;101539.30;;;12.68;76.19
55755;BME280;41674;52.290;-1.474;2023-04-30T07:13:06;101543.07;;;12.32;77.20
55755;BME280;41674;52.290;-1.474;2023-04-30T07:15:36;101539.59;;;12.48;78.31
55755;BME280;41674;52.290;-1.474;2023-04-30T07:18:05;101540.57;;;12.57;77.43
55755;BME280;41674;52.290;-1.474;2023-04-30T07:20:35;101542.79;;;12.43;79.76
55755;BME280;41674;52.290;-1.474;2023-04-30T07:23:04;101544.11;;;12.58;77.79
55755;BME280;41674;52.290;-1.474;2023-04-30T07:25:34;101548.22;;;11.75;79.26
55755;BME280;41674;52.290;-1.474;2023-04-30T07:28:03;101541.71;;;12.56;76.67
55755;BME280;41674;52.290;-1.474;2023-04-30T07:30:33;101539.42;;;12.17;78.61
55755;BME280;41674;52.290;-1.474;2023-04-30T07:33:02;101543.88;;;11.98;79.44
55755;BME280;41674;52.290;-1.474;2023-04-30T07:35:31;101539.63;;;11.82;77.83
55755;BME280;41674;52.290;-1.474;2023-04-30T07:38:01;101537.79;;;11.91;78.10
55755;BME280;41674;52.290;-1.474;2023-04-30T07:40:30;101537.78;;;11.89;81.39
55755;BME280;41674;52.290;-1.474;2023-04-30T07:43:00;101537.22;;;10.80;83.63
55755;BME280;41674;52.290;-1.474;2023-04-30T07:45:29;101537.51;;;11.93;83.12
55755;BME280;41674;52.290;-1.474;2023-04-30T07:48:03;101538.42;;;11.88;80.60
55755;BME280;41674;52.290;-1.474;2023-04-30T07:50:28;101541.72;;;11.74;82.14
55755;BME280;41674;52.290;-1.474;2023-04-30T07:52:57;101536.72;;;12.18;80.54
55755;BME280;41674;52.290;-1.474;2023-04-30T07:55:27;101535.78;;;12.43;78.57
55755;BME280;41674;52.290;-1.474;2023-04-30T07:57:56;101538.96;;;12.07;79.08
55755;BME280;41674;52.290;-1.474;2023-04-30T08:00:26;101537.41;;;10.98;81.71
55755;BME280;41674;52.290;-1.474;2023-04-30T08:02:56;101540.40;;;10.82;85.80
55755;BME280;41674;52.290;-1.474;2023-04-30T08:05:24;101537.78;;;11.17;85.83
55755;BME280;41674;52.290;-1.474;2023-04-30T08:07:54;101540.90;;;11.69;84.62
55755;BME280;41674;52.290;-1.474;2023-04-30T08:10:23;101537.36;;;11.71;80.11
55755;BME280;41674;52.290;-1.474;2023-04-30T08:12:52;101536.09;;;12.11;79.46
55755;BME280;41674;52.290;-1.474;2023-04-30T08:15:23;101536.18;;;11.65;80.80
55755;BME280;41674;52.290;-1.474;2023-04-30T08:17:51;101534.18;;;11.98;79.00
55755;BME280;41674;52.290;-1.474;2023-04-30T08:20:25;101535.57;;;11.61;79.64
55755;BME280;41674;52.290;-1.474;2023-04-30T08:22:49;101535.55;;;12.03;78.96
55755;BME280;41674;52.290;-1.474;2023-04-30T08:25:19;101538.19;;;11.50;81.21
55755;BME280;41674;52.290;-1.474;2023-04-30T08:27:49;101534.18;;;11.70;81.07
55755;BME280;41674;52.290;-1.474;2023-04-30T08:30:18;101536.44;;;11.52;82.97
55755;BME280;41674;52.290;-1.474;2023-04-30T08:32:48;101532.11;;;12.00;78.86
55755;BME280;41674;52.290;-1.474;2023-04-30T08:35:16;101530.70;;;11.78;79.03
55755;BME280;41674;52.290;-1.474;2023-04-30T08:37:46;101529.37;;;11.82;78.31
55755;BME280;41674;52.290;-1.474;2023-04-30T08:40:20;101523.62;;;12.57;77.93
55755;BME280;41674;52.290;-1.474;2023-04-30T08:42:48;101525.67;;;12.35;75.61
55755;BME280;41674;52.290;-1.474;2023-04-30T08:45:14;101521.47;;;12.39;75.53
55755;BME280;41674;52.290;-1.474;2023-04-30T08:47:49;101518.86;;;12.65;74.07
55755;BME280;41674;52.290;-1.474;2023-04-30T08:50:12;101513.27;;;13.10;73.35
55755;BME280;41674;52.290;-1.474;2023-04-30T08:52:42;101515.28;;;13.16;73.78
55755;BME280;41674;52.290;-1.474;2023-04-30T08:55:11;101511.92;;;13.36;72.00
55755;BME280;41674;52.290;-1.474;2023-04-30T08:57:40;101513.55;;;13.19;72.58
55755;BME280;41674;52.290;-1.474;2023-04-30T09:00:11;101510.06;;;13.29;72.49
55755;BME280;41674;52.290;-1.474;2023-04-30T09:02:41;101508.84;;;12.71;73.14
55755;BME280;41674;52.290;-1.474;2023-04-30T09:05:11;101510.91;;;12.20;73.23
55755;BME280;41674;52.290;-1.474;2023-04-30T09:07:40;101507.45;;;12.76;71.54
55755;BME280;41674;52.290;-1.474;2023-04-30T09:10:14;101508.22;;;12.51;72.90
55755;BME280;41674;52.290;-1.474;2023-04-30T09:12:37;101504.86;;;12.83;70.48
55755;BME280;41674;52.290;-1.474;2023-04-30T09:15:08;101503.74;;;13.28;70.39
55755;BME280;41674;52.290;-1.474;2023-04-30T09:17:40;101504.27;;;13.15;70.84
55755;BME280;41674;52.290;-1.474;2023-04-30T09:20:07;101503.39;;;12.33;75.14
55755;BME280;41674;52.290;-1.474;2023-04-30T09:22:40;101507.35;;;12.90;73.12
55755;BME280;41674;52.290;-1.474;2023-04-30T09:25:04;101500.31;;;13.67;69.55
55755;BME280;41674;52.290;-1.474;2023-04-30T09:27:37;101504.83;;;13.47;72.20
55755;BME280;41674;52.290;-1.474;2023-04-30T09:30:02;101501.83;;;14.25;69.41
55755;BME280;41674;52.290;-1.474;2023-04-30T09:32:32;101499.48;;;14.66;68.66
55755;BME280;41674;52.290;-1.474;2023-04-30T09:35:02;101502.26;;;13.94;69.66
55755;BME280;41674;52.290;-1.474;2023-04-30T09:37:36;101498.51;;;14.27;69.30
55755;BME280;41674;52.290;-1.474;2023-04-30T09:40:01;101503.95;;;13.54;69.74
55755;BME280;41674;52.290;-1.474;2023-04-30T09:42:35;101503.63;;;13.88;70.11
55755;BME280;41674;52.290;-1.474;2023-04-30T09:44:59;101507.37;;;13.08;72.46
55755;BME280;41674;52.290;-1.474;2023-04-30T09:47:29;101507.57;;;12.72;73.05
55755;BME280;41674;52.290;-1.474;2023-04-30T09:49:58;101505.43;;;12.98;73.74
55755;BME280;41674;52.290;-1.474;2023-04-30T09:52:27;101498.62;;;13.44;72.16
55755;BME280;41674;52.290;-1.474;2023-04-30T09:55:01;101493.91;;;13.82;71.30
55755;BME280;41674;52.290;-1.474;2023-04-30T09:57:29;101496.52;;;13.87;70.72
55755;BME280;41674;52.290;-1.474;2023-04-30T09:59:56;101497.90;;;13.46;73.25
55755;BME280;41674;52.290;-1.474;2023-04-30T10:02:25;101492.39;;;14.19;70.00
55755;BME280;41674;52.290;-1.474;2023-04-30T10:04:55;101496.03;;;14.56;66.53
55755;BME280;41674;52.290;-1.474;2023-04-30T10:07:35;101498.69;;;13.90;68.07
55755;BME280;41674;52.290;-1.474;2023-04-30T10:09:57;101505.72;;;13.35;71.03
55755;BME280;41674;52.290;-1.474;2023-04-30T10:12:26;101503.61;;;13.05;70.15
55755;BME280;41674;52.290;-1.474;2023-04-30T10:14:56;101504.58;;;12.94;72.95
55755;BME280;41674;52.290;-1.474;2023-04-30T10:17:25;101499.80;;;12.95;72.93
55755;BME280;41674;52.290;-1.474;2023-04-30T10:19:51;101501.29;;;13.55;71.35
55755;BME280;41674;52.290;-1.474;2023-04-30T10:22:20;101494.88;;;13.95;70.65
55755;BME280;41674;52.290;-1.474;2023-04-30T10:24:50;101504.45;;;13.26;70.63
55755;BME280;41674;52.290;-1.474;2023-04-30T10:27:24;101499.52;;;13.63;71.20
55755;BME280;41674;52.290;-1.474;2023-04-30T10:29:49;101494.00;;;13.05;72.80
55755;BME280;41674;52.290;-1.474;2023-04-30T10:32:20;101500.37;;;13.15;73.81
55755;BME280;41674;52.290;-1.474;2023-04-30T10:34:57;101496.28;;;13.43;73.12
55755;BME280;41674;52.290;-1.474;2023-04-30T10:37:35;101493.77;;;13.29;70.95
55755;BME280;41674;52.290;-1.474;2023-04-30T10:39:46;101493.73;;;13.12;71.36
55755;BME280;41674;52.290;-1.474;2023-04-30T10:42:16;101491.39;;;13.19;73.62
55755;BME280;41674;52.290;-1.474;2023-04-30T10:44:45;101490.40;;;13.50;71.28
55755;BME280;41674;52.290;-1.474;2023-04-30T10:47:16;101490.96;;;13.17;71.69
55755;BME280;41674;52.290;-1.474;2023-04-30T10:49:50;101481.52;;;13.81;73.28
55755;BME280;41674;52.290;-1.474;2023-04-30T10:54:48;101478.91;;;14.45;66.48
55755;BME280;41674;52.290;-1.474;2023-04-30T10:57:14;101477.34;;;14.59;68.17
55755;BME280;41674;52.290;-1.474;2023-04-30T10:59:43;101476.00;;;15.05;67.61
55755;BME280;41674;52.290;-1.474;2023-04-30T11:02:14;101476.96;;;14.34;66.51
55755;BME280;41674;52.290;-1.474;2023-04-30T11:07:10;101470.33;;;14.44;67.55
55755;BME280;41674;52.290;-1.474;2023-04-30T11:09:41;101468.61;;;14.40;66.50
55755;BME280;41674;52.290;-1.474;2023-04-30T11:12:12;101463.93;;;14.39;68.72
55755;BME280;41674;52.290;-1.474;2023-04-30T11:14:41;101459.29;;;14.65;67.61
55755;BME280;41674;52.290;-1.474;2023-04-30T11:17:09;101452.10;;;15.02;66.41
55755;BME280;41674;52.290;-1.474;2023-04-30T11:19:45;101448.97;;;15.27;64.18
55755;BME280;41674;52.290;-1.474;2023-04-30T11:22:17;101448.48;;;15.07;66.67
55755;BME280;41674;52.290;-1.474;2023-04-30T11:24:50;101448.15;;;15.10;64.69
55755;BME280;41674;52.290;-1.474;2023-04-30T11:27:05;101444.18;;;15.35;65.77
55755;BME280;41674;52.290;-1.474;2023-04-30T11:29:35;101438.38;;;15.63;66.33
55755;BME280;41674;52.290;-1.474;2023-04-30T11:32:05;101442.82;;;15.59;66.35
55755;BME280;41674;52.290;-1.474;2023-04-30T11:34:37;101441.48;;;15.11;63.74
55755;BME280;41674;52.290;-1.474;2023-04-30T11:37:11;101442.04;;;14.86;65.06
55755;BME280;41674;52.290;-1.474;2023-04-30T11:39:34;101430.71;;;15.90;65.35
55755;BME280;41674;52.290;-1.474;2023-04-30T11:42:02;101434.52;;;15.89;65.12
55755;BME280;41674;52.290;-1.474;2023-04-30T11:44:32;101438.56;;;15.37;66.96
55755;BME280;41674;52.290;-1.474;2023-04-30T11:47:01;101429.34;;;16.16;63.52
55755;BME280;41674;52.290;-1.474;2023-04-30T11:49:31;101423.32;;;15.94;61.45
55755;BME280;41674;52.290;-1.474;2023-04-30T11:52:05;101429.79;;;15.52;62.18
55755;BME280;41674;52.290;-1.474;2023-04-30T11:54:30;101429.93;;;15.19;63.47
55755;BME280;41674;52.290;-1.474;2023-04-30T11:57:00;101429.77;;;15.37;63.06
55755;BME280;41674;52.290;-1.474;2023-04-30T11:59:30;101426.35;;;14.99;65.06
55755;BME280;41674;52.290;-1.474;2023-04-30T12:01:59;101425.34;;;14.49;66.52
55755;BME280;41674;52.290;-1.474;2023-04-30T12:04:28;101420.45;;;15.12;63.82
55755;BME280;41674;52.290;-1.474;2023-04-30T12:06:59;101418.10;;;15.78;63.00
55755;BME280;41674;52.290;-1.474;2023-04-30T12:09:28;101412.59;;;15.56;66.72
55755;BME280;41674;52.290;-1.474;2023-04-30T12:12:07;101410.96;;;16.73;62.02
55755;BME280;41674;52.290;-1.474;2023-04-30T12:14:27;101417.46;;;15.68;60.92
55755;BME280;41674;52.290;-1.474;2023-04-30T12:16:57;101414.86;;;15.63;64.26
55755;BME280;41674;52.290;-1.474;2023-04-30T12:19:25;101407.61;;;15.83;62.11
55755;BME280;41674;52.290;-1.474;2023-04-30T12:21:55;101401.73;;;16.07;62.26
55755;BME280;41674;52.290;-1.474;2023-04-30T12:24:26;101400.78;;;15.85;63.12
55755;BME280;41674;52.290;-1.474;2023-04-30T12:26:54;101403.78;;;15.93;61.78
55755;BME280;41674;52.290;-1.474;2023-04-30T12:29:24;101400.89;;;16.22;60.85
55755;BME280;41674;52.290;-1.474;2023-04-30T12:31:53;101394.62;;;16.96;59.70
55755;BME280;41674;52.290;-1.474;2023-04-30T12:34:26;101397.91;;;15.84;60.24
55755;BME280;41674;52.290;-1.474;2023-04-30T12:36:57;101393.20;;;16.08;60.81
55755;BME280;41674;52.290;-1.474;2023-04-30T12:39:22;101393.64;;;17.00;57.50
55755;BME280;41674;52.290;-1.474;2023-04-30T12:42:00;101393.16;;;16.20;59.61
55755;BME280;41674;52.290;-1.474;2023-04-30T12:44:23;101398.05;;;16.87;59.46
55755;BME280;41674;52.290;-1.474;2023-04-30T12:46:52;101392.19;;;16.28;56.76
55755;BME280;41674;52.290;-1.474;2023-04-30T12:49:24;101390.85;;;16.43;58.12
55755;BME280;41674;52.290;-1.474;2023-04-30T12:51:48;101384.68;;;16.18;58.65
55755;BME280;41674;52.290;-1.474;2023-04-30T12:54:30;101391.68;;;16.17;56.33
55755;BME280;41674;52.290;-1.474;2023-04-30T12:56:57;101391.19;;;15.50;59.19
55755;BME280;41674;52.290;-1.474;2023-04-30T12:59:17;101402.14;;;14.78;62.19